WetterOnline ( https://www.wetteronline.de )

Wetter aktuell Wittenberg

Aktuelles Wetter: Wittenberg (106m)

6-stündlich | Neueste Meldungen
Ortszeit Temperatur Wetter
Fr, 13.12. 13:00 2.6° C wolkenlos
Fr, 13.12. 7:00 -0.3° C wolkenlos
Fr, 13.12. 1:00 0.5° C wolkenlos
Do, 12.12. 19:00 1.6° C wolkig
Do, 12.12. 13:00 4.2° C wolkig
Do, 12.12. 7:00 1.0° C bedeckt
Do, 12.12. 1:00 1.1° C Sprühregen
Mi, 11.12. 19:00 3.7° C bedeckt
Ortszeit Temperatur Wetter
Fr, 13.12. 15:00 2.1° C bewölkt
Fr, 13.12. 14:50 2.1° C leichter Schneefall
Fr, 13.12. 14:40 2.4° C leichter Schneeregen
Fr, 13.12. 14:30 2.5° C bedeckt
Fr, 13.12. 14:20 2.5° C bedeckt
Fr, 13.12. 14:10 2.4° C bewölkt
Fr, 13.12. 14:00 2.2° C leicht bewölkt
Fr, 13.12. 13:30 2.4° C leicht bewölkt
Fr, 13.12. 13:00 2.6° C wolkenlos
Fr, 13.12. 12:30 2.2° C wolkenlos
Fr, 13.12. 12:00 1.9° C wolkenlos
Ortszeit Relative Feuchte Sichtweite
Fr, 13.12. 13:00 75% 35 km
Fr, 13.12. 7:00 90% 12 km
Fr, 13.12. 1:00 90% 21 km
Do, 12.12. 19:00 93% 22 km
Do, 12.12. 13:00 83% 30 km
Do, 12.12. 7:00 96% 7 km
Do, 12.12. 1:00 96% 7 km
Mi, 11.12. 19:00 61% 55 km
Ortszeit Relative Feuchte Sichtweite
Fr, 13.12. 15:00 80% 27 km
Fr, 13.12. 14:50 80% -
Fr, 13.12. 14:40 78% -
Fr, 13.12. 14:30 75% 35 km
Fr, 13.12. 14:20 75% -
Fr, 13.12. 14:10 76% -
Fr, 13.12. 14:00 78% 30 km
Fr, 13.12. 13:30 76% 35 km
Fr, 13.12. 13:00 75% 35 km
Fr, 13.12. 12:30 77% 30 km
Fr, 13.12. 12:00 78% 26 km
Ortszeit Niederschlagsmenge Niederschlagsart
Fr, 13.12. 13:00 0.0 l/m2 in 6 Std. -
Fr, 13.12. 7:00 0.0 l/m2 in 12 Std. -
Fr, 13.12. 1:00 0.0 l/m2 in 6 Std. -
Do, 12.12. 19:00 0.0 l/m2 in 12 Std. -
Do, 12.12. 13:00 0.0 l/m2 in 6 Std. -
Do, 12.12. 7:00 2 l/m2 in 12 Std. Schnee, Regen
Do, 12.12. 1:00 0.5 l/m2 in 6 Std. Schnee, Regen
Mi, 11.12. 19:00 0.0 l/m2 in 12 Std. -
Ortszeit Niederschlagsmenge Niederschlagsart
Fr, 13.12. 15:00 0.1 l/m2 in 1 Std. Schnee
Fr, 13.12. 14:50 keine Meldung -
Fr, 13.12. 14:40 keine Meldung -
Fr, 13.12. 14:30 0.0 l/m2 in 1 Std. -
Fr, 13.12. 14:20 keine Meldung -
Fr, 13.12. 14:10 keine Meldung -
Fr, 13.12. 14:00 0.0 l/m2 in 1 Std. -
Fr, 13.12. 13:30 0.0 l/m2 in 1 Std. -
Fr, 13.12. 13:00 0.0 l/m2 in 1 Std. -
Fr, 13.12. 12:30 0.0 l/m2 in 1 Std. -
Fr, 13.12. 12:00 0.0 l/m2 in 1 Std. -
Ortszeit Stärke Spitze Richtung
km/h Bft. km/h Grad Sektor
Fr, 13.12. 13:00 17 3 37 130° SO
Fr, 13.12. 7:00 17 3 31 120° SO
Fr, 13.12. 1:00 15 3 24 140° SO
Do, 12.12. 19:00 7 2 18 150° SO
Do, 12.12. 13:00 7 2 22 240° SW
Do, 12.12. 7:00 9 2 19 230° SW
Do, 12.12. 1:00 11 2 25 220° SW
Mi, 11.12. 19:00 9 2 20 160° S
Ortszeit Stärke Spitze Richtung
km/h Bft. km/h Grad Sektor
Fr, 13.12. 15:00 19 3 31 120° SO
Fr, 13.12. 14:50 19 3 - 120° SO
Fr, 13.12. 14:40 17 3 - 120° SO
Fr, 13.12. 14:30 17 3 28 120° SO
Fr, 13.12. 14:20 17 3 - 120° SO
Fr, 13.12. 14:10 14 3 - 120° SO
Fr, 13.12. 14:00 15 3 30 120° SO
Fr, 13.12. 13:30 14 3 29 130° SO
Fr, 13.12. 13:00 17 3 37 130° SO
Fr, 13.12. 12:30 22 4 36 130° SO
Fr, 13.12. 12:00 20 4 33 130° SO
Ortszeit Untergrenze Bedeckung Gattung
total tief tief mittel hoch
Fr, 13.12. 13:00 7800 m 0/8 0/8 - - -
Fr, 13.12. 7:00 - 0/8 0/8 - - -
Fr, 13.12. 1:00 - 0/8 0/8 - - -
Do, 12.12. 19:00 1800 m 6/8 2/8 - - -
Do, 12.12. 13:00 330 m 8/8 1/8 - - -
Do, 12.12. 7:00 180 m 8/8 8/8 - - -
Do, 12.12. 1:00 120 m 8/8 8/8 - - -
Mi, 11.12. 19:00 1500 m 8/8 8/8 - - -
Ortszeit Bedeckungsgrad in Achtel und Wolkenuntergrenze
Fr, 13.12. 15:00 3(810m) 7(1080m)
Fr, 13.12. 14:50 3(810m) 7(1080m)
Fr, 13.12. 14:40 2(810m) 7(1110m) 8(1500m)
Fr, 13.12. 14:30 5(1110m) 8(1500m) 8(6600m)
Fr, 13.12. 14:20 5(1110m) 8(1500m) 8(6600m)
Fr, 13.12. 14:10 3(1080m) 7(1500m) 7(6600m)
Fr, 13.12. 14:00 1(1080m) 4(1500m) 6(6600m)
Fr, 13.12. 13:30 6(7800m) 4(7800m)
Fr, 13.12. 13:00 3(7800m)
Fr, 13.12. 12:30 keine Wolken
Fr, 13.12. 12:00 keine Wolken
Ortszeit Luftdruck NN (hPa) Tendenz (hPa in 3 Std.)
Fr, 13.12. 13:00 982 - 2,0
Fr, 13.12. 7:00 987 - 3,9
Fr, 13.12. 1:00 995 - 3,5
Do, 12.12. 19:00 1001 - 1,4
Do, 12.12. 13:00 1003 - 1,1
Do, 12.12. 7:00 1004 - 0,1
Do, 12.12. 1:00 1005 - 1,7
Mi, 11.12. 19:00 1008 - 1,8
Ortszeit Luftdruck NN (hPa) Tendenz (hPa in 3 Std.)
Fr, 13.12. 15:00 982 - 0,6
Fr, 13.12. 14:50 982 keine Meldung
Fr, 13.12. 14:40 982 keine Meldung
Fr, 13.12. 14:30 982 - 1,3
Fr, 13.12. 14:20 982 keine Meldung
Fr, 13.12. 14:10 982 keine Meldung
Fr, 13.12. 14:00 982 - 1,8
Fr, 13.12. 13:30 982 - 2,0
Fr, 13.12. 13:00 982 - 2,0
Fr, 13.12. 12:30 982 - 2,4
Fr, 13.12. 12:00 983 - 2,5
Ortszeit Schneehöhe (cm)
Fr, 13.12. 13:00 0
Fr, 13.12. 7:00 0
Fr, 13.12. 1:00 0
Do, 12.12. 19:00 0
Do, 12.12. 13:00 0
Do, 12.12. 7:00 0
Do, 12.12. 1:00 0
Mi, 11.12. 19:00 0
Ortszeit Schneehöhe (cm)
Fr, 13.12. 15:00 0
Fr, 13.12. 14:50 0
Fr, 13.12. 14:40 0
Fr, 13.12. 14:30 0
Fr, 13.12. 14:20 0
Fr, 13.12. 14:10 0
Fr, 13.12. 14:00 0
Fr, 13.12. 13:30 0
Fr, 13.12. 13:00 0
Fr, 13.12. 12:30 0
Fr, 13.12. 12:00 0
Link zu dieser Seite / Seite empfehlen

Das Wetter in ...